Time;durP1;ratioP1;P1;durP2;ratioP2;P2;SDS_P1;SDS_P2;PMS_P1;PMS_P2;Temp;Humidity;BMP_temperature;BMP_pressure;BME280_temperature;BME280_humidity;BME280_pressure;Samples;Min_cycle;Max_cycle;Signal;HPM_P1;HPM_P2
2023/09/18 00:02:48;;;;;;;3.13;2.92;;;;;;;21.91;61.63;96163.53;6308068;22;20007;-79
2023/09/18 00:05:27;;;;;;;3.60;3.30;;;;;;;21.90;61.61;96161.13;6277050;23;20008;-79
2023/09/18 00:08:02;;;;;;;4.10;3.38;;;;;;;21.89;61.58;96156.88;6276860;23;20008;-80
2023/09/18 00:10:43;;;;;;;4.75;3.65;;;;;;;21.89;61.40;96157.69;6276968;23;20030;-79
2023/09/18 00:13:18;;;;;;;8.05;3.88;;;;;;;21.86;61.58;96163.50;6251583;23;20020;-80
2023/09/18 00:15:51;;;;;;;7.50;3.60;;;;;;;21.84;61.87;96162.97;6275986;23;20012;-80
2023/09/18 00:21:25;;;;;;;3.78;3.47;;;;;;;21.78;61.96;96162.19;6300754;22;20023;-80
2023/09/18 00:23:59;;;;;;;4.05;3.65;;;;;;;21.74;62.14;96155.78;6306238;22;20000;-79
2023/09/18 00:29:32;;;;;;;4.90;3.90;;;;;;;21.69;62.56;96153.16;6300688;22;20067;-80
2023/09/18 00:35:08;;;;;;;3.92;3.63;;;;;;;21.71;62.53;96145.72;6283306;22;20026;-81
2023/09/18 00:37:47;;;;;;;4.25;3.83;;;;;;;21.71;62.14;96145.72;6307601;22;20032;-79
2023/09/18 00:40:28;;;;;;;4.60;3.97;;;;;;;21.69;62.25;96149.66;6307596;22;20011;-79
2023/09/18 01:43:14;;;;;;;4.55;4.10;;;;;;;21.42;63.89;96115.41;6276979;22;20014;-80
2023/09/18 01:45:46;;;;;;;4.43;4.00;;;;;;;21.36;63.82;96107.41;6306892;22;20016;-79
2023/09/18 01:48:21;;;;;;;4.80;4.30;;;;;;;21.36;63.97;96104.75;6306796;22;20000;-79
2023/09/18 01:50:54;;;;;;;6.63;4.22;;;;;;;21.32;64.28;96111.66;6281076;22;20019;-80
2023/09/18 01:53:29;;;;;;;;;;;;;;;21.31;63.70;96103.94;6306062;22;20027;-79
2023/09/18 02:04:12;;;;;;;4.68;4.18;;;;;;;21.06;65.15;96109.97;6280163;22;20030;-79
2023/09/18 02:07:05;;;;;;;5.85;4.20;;;;;;;20.99;65.38;96103.06;6306641;22;20012;-79
2023/09/18 02:09:35;;;;;;;5.10;4.18;;;;;;;20.96;65.74;96090.31;6307817;22;20008;-79
2023/09/18 02:12:06;;;;;;;4.65;4.18;;;;;;;20.92;65.74;96075.97;6309096;22;20018;-79
2023/09/18 02:14:38;;;;;;;4.75;4.30;;;;;;;20.92;65.97;96080.50;6308864;22;20008;-80
2023/09/18 02:17:08;;;;;;;5.25;4.03;;;;;;;20.92;65.86;96075.97;6294771;22;20028;-81
2023/09/18 02:19:37;;;;;;;5.47;4.60;;;;;;;20.93;66.03;96068.84;6278644;22;20024;-80
2023/09/18 02:22:05;;;;;;;7.93;4.97;;;;;;;20.92;65.87;96052.13;6278658;22;20077;-79
2023/09/18 02:24:33;;;;;;;4.43;4.03;;;;;;;20.91;65.76;96055.03;6278323;22;20334;-80
2023/09/18 02:27:04;;;;;;;4.40;4.00;;;;;;;20.90;65.82;96054.25;6278590;22;20079;-81
2023/09/18 02:29:32;;;;;;;5.00;4.50;;;;;;;20.88;65.96;96061.66;6278262;22;20066;-80
2023/09/18 02:31:59;;;;;;;6.68;4.30;;;;;;;20.89;66.29;96054.50;6278842;22;20043;-81
2023/09/18 02:34:27;;;;;;;5.25;4.75;;;;;;;20.90;66.03;96050.78;6277613;22;20051;-81
2023/09/18 02:36:56;;;;;;;6.43;4.60;;;;;;;20.88;66.33;96043.13;6278536;22;20054;-81
2023/09/18 02:39:24;;;;;;;5.13;4.25;;;;;;;20.85;66.31;96043.63;6278676;22;20027;-80
2023/09/18 02:41:51;;;;;;;5.07;4.28;;;;;;;20.84;66.43;96047.34;6278020;22;20360;-81
2023/09/18 02:44:19;;;;;;;4.88;3.97;;;;;;;20.82;66.51;96061.91;6277718;22;20024;-80
2023/09/18 02:46:47;;;;;;;5.78;4.28;;;;;;;20.84;66.38;96065.91;6277894;22;20016;-81
2023/09/18 02:49:14;;;;;;;4.80;3.80;;;;;;;20.85;66.22;96082.59;6277951;22;20464;-81
2023/09/18 02:51:42;;;;;;;5.57;3.63;;;;;;;20.87;66.35;96080.47;6278241;22;20024;-81
2023/09/18 02:54:11;;;;;;;4.28;3.83;;;;;;;20.89;66.22;96087.09;6277155;22;20081;-80
2023/09/18 02:56:38;;;;;;;6.05;3.97;;;;;;;20.92;65.52;96094.53;6278191;22;20376;-80
2023/09/18 02:59:06;;;;;;;6.53;4.03;;;;;;;20.95;65.34;96096.69;6277853;22;20023;-81
2023/09/18 03:01:34;;;;;;;5.35;3.70;;;;;;;21.00;65.26;96106.50;6277649;22;20520;-80
2023/09/18 03:04:02;;;;;;;5.70;3.83;;;;;;;21.03;64.96;96091.94;6277881;22;20077;-80
2023/09/18 03:06:30;;;;;;;6.85;4.13;;;;;;;21.06;64.71;96080.81;6278009;22;20460;-81
2023/09/18 03:08:57;;;;;;;4.68;4.07;;;;;;;21.09;64.83;96082.94;6277750;22;20019;-81
2023/09/18 03:11:28;;;;;;;6.20;3.95;;;;;;;21.11;64.77;96080.81;6277334;22;20051;-81
2023/09/18 03:13:56;;;;;;;8.80;3.95;;;;;;;21.10;64.57;96071.25;6277439;22;20058;-80
2023/09/18 03:16:24;;;;;;;8.07;4.10;;;;;;;21.11;64.24;96062.25;6277290;22;20020;-80
2023/09/18 03:18:51;;;;;;;6.15;3.85;;;;;;;21.10;64.28;96065.94;6277705;22;20030;-80
2023/09/18 03:21:19;;;;;;;4.57;3.60;;;;;;;21.10;64.28;96058.00;6277558;22;20019;-81
2023/09/18 03:23:47;;;;;;;6.82;3.40;;;;;;;21.10;64.46;96058.00;6276885;22;20045;-81
2023/09/18 03:26:14;;;;;;;5.03;3.78;;;;;;;21.12;64.13;96054.03;6277635;22;20015;-81
2023/09/18 03:28:43;;;;;;;5.95;3.60;;;;;;;21.12;64.53;96040.78;6277853;22;20030;-80
2023/09/18 03:31:11;;;;;;;6.88;4.07;;;;;;;21.10;64.43;96026.16;6277765;22;20094;-81
2023/09/18 03:33:38;;;;;;;4.78;4.00;;;;;;;21.07;64.84;96019.53;6277686;22;20033;-80
2023/09/18 03:36:07;;;;;;;6.65;4.00;;;;;;;21.03;64.97;96017.69;6277441;22;20027;-80
2023/09/18 03:38:35;;;;;;;4.63;4.18;;;;;;;21.01;65.11;96015.28;6277410;22;20074;-81
2023/09/18 03:41:03;;;;;;;6.30;4.15;;;;;;;20.98;65.35;96027.22;6277362;22;20567;-80
2023/09/18 03:43:30;;;;;;;4.70;4.20;;;;;;;20.95;65.30;96011.06;6276940;22;20019;-81
2023/09/18 03:46:05;;;;;;;4.63;4.15;;;;;;;20.91;65.71;96015.28;6277460;22;20099;-80
2023/09/18 03:48:37;;;;;;;6.20;3.63;;;;;;;20.87;65.88;96003.59;6276938;22;20016;-80
2023/09/18 03:51:05;;;;;;;4.43;4.03;;;;;;;20.81;65.77;96016.03;6277762;22;20026;-80
2023/09/18 03:53:33;;;;;;;4.80;4.00;;;;;;;20.80;65.76;96014.47;6277460;22;20357;-80
2023/09/18 03:56:01;;;;;;;7.95;4.47;;;;;;;20.78;65.76;96014.72;6277193;22;20027;-81
2023/09/18 03:58:28;;;;;;;4.97;4.20;;;;;;;20.76;66.08;96003.56;6276749;22;20016;-80
2023/09/18 04:00:56;;;;;;;5.20;3.97;;;;;;;20.74;66.23;96012.84;6277081;22;20024;-79
2023/09/18 04:03:25;;;;;;;6.22;4.95;;;;;;;20.71;66.26;96019.47;6277280;22;20031;-80
2023/09/18 04:05:53;;;;;;;7.28;4.57;;;;;;;20.67;66.42;96009.66;6277312;22;20024;-81
2023/09/18 04:08:20;;;;;;;4.63;4.03;;;;;;;20.63;66.61;96012.00;6277218;22;20020;-81
2023/09/18 04:10:48;;;;;;;5.20;4.05;;;;;;;20.61;66.82;96021.28;6277431;22;20020;-79
2023/09/18 04:13:16;;;;;;;5.43;4.30;;;;;;;20.63;66.72;96019.97;6277393;22;20085;-80
2023/09/18 04:15:45;;;;;;;5.47;4.32;;;;;;;20.64;66.70;96029.53;6276813;22;20081;-81
2023/09/18 04:18:13;;;;;;;6.60;4.28;;;;;;;20.64;66.71;96034.00;6276777;22;20101;-81
2023/09/18 04:20:42;;;;;;;7.03;4.38;;;;;;;20.65;66.90;96048.84;6276973;22;20357;-80
2023/09/18 04:23:19;;;;;;;6.20;4.28;;;;;;;20.69;67.06;96065.84;6277124;22;20543;-80
2023/09/18 04:25:47;;;;;;;3.90;3.47;;;;;;;20.73;66.75;96074.88;6276996;22;20038;-81
2023/09/18 04:28:15;;;;;;;7.63;3.95;;;;;;;20.79;66.32;96081.75;6276621;22;20027;-80
2023/09/18 04:30:42;;;;;;;8.73;4.85;;;;;;;20.81;66.22;96095.56;6277057;22;20031;-80
2023/09/18 04:33:11;;;;;;;8.50;5.13;;;;;;;20.78;66.17;96107.47;6280140;22;20023;-80
2023/09/18 04:35:39;;;;;;;11.32;5.50;;;;;;;20.77;66.45;96121.81;6276959;22;20023;-80
2023/09/18 04:38:10;;;;;;;11.82;5.80;;;;;;;20.79;66.68;96140.06;6277547;22;20019;-80
2023/09/18 04:40:38;;;;;;;7.47;5.55;;;;;;;20.81;66.26;96140.63;6277254;22;20047;-81
2023/09/18 04:43:08;;;;;;;9.25;5.03;;;;;;;20.85;65.66;96143.56;6276813;22;20024;-80
2023/09/18 04:45:36;;;;;;;10.38;4.95;;;;;;;20.88;64.94;96138.56;6277963;22;20023;-81
2023/09/18 04:48:05;;;;;;;10.95;4.85;;;;;;;20.90;64.37;96148.88;6276645;22;20020;-80
2023/09/18 04:50:34;;;;;;;11.05;4.20;;;;;;;20.93;64.41;96146.53;6276552;22;20030;-81
2023/09/18 04:53:01;;;;;;;10.25;5.18;;;;;;;20.95;64.03;96130.34;6276379;22;20020;-81
2023/09/18 04:55:31;;;;;;;10.57;4.90;;;;;;;20.93;64.20;96127.97;6278085;22;20070;-81
2023/09/18 04:57:59;;;;;;;7.57;4.93;;;;;;;20.94;64.58;96128.75;6277216;22;20047;-81
2023/09/18 05:00:29;;;;;;;14.07;4.97;;;;;;;20.92;64.42;96123.69;6288890;22;20054;-81
2023/09/18 05:02:57;;;;;;;9.57;4.93;;;;;;;20.91;64.22;96106.22;6298334;22;20016;-81
2023/09/18 05:05:25;;;;;;;10.45;4.75;;;;;;;20.89;64.08;96096.94;6297852;22;20031;-80
2023/09/18 05:07:52;;;;;;;7.68;4.57;;;;;;;20.88;63.83;96105.91;6279409;22;20020;-80
2023/09/18 05:10:20;;;;;;;7.47;4.28;;;;;;;20.85;64.16;96109.09;6278800;22;20322;-81
2023/09/18 05:12:50;;;;;;;14.10;4.68;;;;;;;20.84;63.69;96108.31;6276523;22;20023;-80
2023/09/18 05:15:18;;;;;;;10.75;4.38;;;;;;;20.82;63.71;96102.47;6276719;22;20024;-80
2023/09/18 05:17:47;;;;;;;8.93;4.40;;;;;;;20.83;63.81;96087.34;6276694;22;20031;-81
2023/09/18 05:20:18;;;;;;;13.55;4.30;;;;;;;20.82;63.86;96077.81;6276750;22;20051;-78
2023/09/18 05:22:46;;;;;;;6.40;4.60;;;;;;;20.82;63.66;96086.56;6276793;22;20328;-80
2023/09/18 05:25:14;;;;;;;7.63;4.90;;;;;;;20.85;63.90;96091.34;6276894;22;20019;-80
2023/09/18 05:27:44;;;;;;;7.03;4.13;;;;;;;20.89;63.83;96076.50;6276829;22;20039;-80
2023/09/18 05:30:15;;;;;;;7.45;3.90;;;;;;;20.92;63.76;96061.94;6277264;22;20020;-81
2023/09/18 05:32:44;;;;;;;10.40;4.57;;;;;;;20.94;63.84;96062.47;6276459;22;20034;-82
2023/09/18 05:35:12;;;;;;;12.50;4.68;;;;;;;20.94;63.60;96063.25;6276372;22;20023;-81
2023/09/18 05:37:42;;;;;;;15.00;4.50;;;;;;;20.91;63.69;96079.69;6294267;22;20011;-78
2023/09/18 05:40:12;;;;;;;8.45;4.22;;;;;;;20.91;63.84;96085.00;6303044;22;20022;-79
2023/09/18 05:42:42;;;;;;;9.05;4.68;;;;;;;20.93;63.97;96082.88;6303500;22;20020;-80
2023/09/18 05:45:11;;;;;;;7.97;3.78;;;;;;;20.95;63.84;96083.44;6303048;22;20027;-78
2023/09/18 05:47:40;;;;;;;11.65;4.43;;;;;;;20.96;63.67;96087.66;6303476;22;20008;-79
2023/09/18 05:50:14;;;;;;;13.80;4.15;;;;;;;20.98;63.75;96074.94;6301545;22;20020;-79
2023/09/18 05:52:43;;;;;;;18.75;4.95;;;;;;;20.97;63.62;96067.25;6277199;22;20023;-80
2023/09/18 05:55:11;;;;;;;15.02;4.90;;;;;;;20.94;64.15;96060.59;6276283;22;20081;-81
2023/09/18 05:57:38;;;;;;;15.15;4.53;;;;;;;20.91;64.07;96063.78;6277132;22;20097;-81
2023/09/18 06:00:07;;;;;;;13.65;4.70;;;;;;;20.89;64.12;96068.56;6276914;22;20042;-81
2023/09/18 06:02:37;;;;;;;14.07;4.47;;;;;;;20.88;64.28;96071.47;6277220;22;20285;-81
2023/09/18 06:05:07;;;;;;;10.10;4.03;;;;;;;20.89;64.35;96060.59;6276500;22;20453;-80
2023/09/18 06:07:35;;;;;;;13.27;4.57;;;;;;;20.90;64.02;96072.81;6276209;22;20019;-80
2023/09/18 06:10:02;;;;;;;12.02;3.97;;;;;;;20.92;64.07;96072.53;6276221;22;20023;-80
2023/09/18 06:12:30;;;;;;;8.05;3.90;;;;;;;20.94;64.10;96079.16;6275657;22;20074;-80
2023/09/18 06:14:58;;;;;;;14.35;4.00;;;;;;;20.99;64.29;96103.06;6276097;22;20024;-80
2023/09/18 06:17:25;;;;;;;6.22;3.47;;;;;;;21.06;63.72;96097.50;6275690;22;20496;-81
2023/09/18 06:19:53;;;;;;;16.40;4.20;;;;;;;21.13;63.75;96105.22;6275891;22;20024;-81
2023/09/18 06:22:22;;;;;;;20.80;4.50;;;;;;;21.16;63.32;96104.69;6276377;22;20030;-80
2023/09/18 06:24:50;;;;;;;16.63;4.28;;;;;;;21.20;63.28;96108.41;6275785;22;20032;-80
2023/09/18 06:27:18;;;;;;;16.70;4.82;;;;;;;21.23;63.26;96105.25;6276559;22;20048;-80
2023/09/18 06:29:46;;;;;;;14.57;3.88;;;;;;;21.27;63.46;96093.03;6276738;22;20027;-81
2023/09/18 06:32:13;;;;;;;11.95;4.60;;;;;;;21.28;63.12;96086.69;6277061;22;20050;-81
2023/09/18 06:34:43;;;;;;;30.38;4.93;;;;;;;21.30;63.32;96075.84;6275533;22;20023;-81
2023/09/18 06:37:12;;;;;;;13.95;3.60;;;;;;;21.29;63.30;96077.66;6276290;22;20476;-81
2023/09/18 06:39:41;;;;;;;18.30;3.80;;;;;;;21.31;63.71;96088.03;6276374;22;20026;-80
2023/09/18 06:42:09;;;;;;;11.45;3.20;;;;;;;21.34;63.86;96090.13;6276356;22;20020;-80
2023/09/18 06:44:36;;;;;;;8.95;3.45;;;;;;;21.45;63.83;96090.97;6276673;22;20106;-81
2023/09/18 06:47:04;;;;;;;11.85;3.78;;;;;;;21.60;63.05;96088.34;6276461;22;20043;-81
2023/09/18 06:49:32;;;;;;;10.75;3.90;;;;;;;;;;6276373;22;20070;-80
2023/09/18 06:52:00;;;;;;;15.45;4.00;;;;;;;21.91;61.77;96091.00;6276651;22;20031;-80
2023/09/18 06:54:27;;;;;;;9.43;3.60;;;;;;;22.10;60.86;96100.03;6276406;22;20357;-81
2023/09/18 06:56:56;;;;;;;10.30;3.35;;;;;;;22.31;60.39;96100.03;6278490;22;20342;-80
2023/09/18 06:59:24;;;;;;;8.48;3.85;;;;;;;22.51;60.04;96105.31;6278175;22;20020;-81
2023/09/18 07:01:51;;;;;;;8.73;3.58;;;;;;;22.73;59.66;96090.88;6278157;22;20023;-81
2023/09/18 07:04:19;;;;;;;10.45;3.63;;;;;;;22.91;59.08;96092.94;6278007;22;20042;-81
2023/09/18 07:06:47;;;;;;;7.28;3.00;;;;;;;23.08;58.46;96086.53;6278259;22;20027;-80
2023/09/18 07:09:15;;;;;;;7.90;3.50;;;;;;;23.23;58.46;96094.41;6278186;22;20016;-81
2023/09/18 07:11:43;;;;;;;7.97;3.70;;;;;;;23.35;57.45;96094.88;6277767;22;20024;-81
2023/09/18 07:14:12;;;;;;;7.90;3.10;;;;;;;23.42;56.45;96103.34;6278083;22;20089;-80
2023/09/18 07:16:40;;;;;;;7.82;3.25;;;;;;;23.52;57.03;96085.72;6278247;22;20050;-80
2023/09/18 07:19:11;;;;;;;9.38;3.63;;;;;;;23.61;55.73;96089.38;6277711;22;20070;-80
2023/09/18 07:21:40;;;;;;;10.80;3.33;;;;;;;23.65;55.68;96098.41;6277977;22;20058;-80
2023/09/18 07:24:10;;;;;;;9.88;3.15;;;;;;;23.69;55.75;96096.00;6277683;22;20050;-81
2023/09/18 07:26:37;;;;;;;12.05;3.40;;;;;;;23.68;55.55;96095.19;6277785;22;20049;-80
2023/09/18 07:29:05;;;;;;;14.57;3.70;;;;;;;23.69;56.41;96111.97;6278079;22;20016;-80
2023/09/18 07:31:35;;;;;;;14.48;3.78;;;;;;;23.71;56.18;96099.16;6277846;22;20023;-81
2023/09/18 07:34:04;;;;;;;9.23;3.17;;;;;;;23.73;55.77;96103.16;6277477;22;20103;-80
2023/09/18 07:36:31;;;;;;;14.18;3.50;;;;;;;23.76;55.33;96097.28;6278026;22;20031;-81
2023/09/18 07:38:59;;;;;;;13.07;3.13;;;;;;;23.80;54.66;96108.97;6277917;22;20483;-80
2023/09/18 07:41:26;;;;;;;6.22;3.03;;;;;;;23.85;54.56;96114.28;6278035;22;20073;-80
2023/09/18 07:43:54;;;;;;;8.68;3.22;;;;;;;23.92;54.13;96121.13;6278065;22;20047;-81
2023/09/18 07:46:22;;;;;;;12.82;3.13;;;;;;;23.99;54.09;96121.63;6278025;22;20024;-80
2023/09/18 07:48:51;;;;;;;11.95;3.05;;;;;;;24.07;53.30;96134.31;6277851;22;20098;-81
2023/09/18 07:51:19;;;;;;;16.17;3.05;;;;;;;24.10;52.90;96133.00;6278393;22;20387;-80
2023/09/18 07:53:47;;;;;;;10.05;2.45;;;;;;;24.12;52.90;96136.16;6278087;22;20626;-81
2023/09/18 07:56:14;;;;;;;6.40;2.25;;;;;;;24.14;52.93;96142.81;6277649;22;20095;-81
2023/09/18 07:58:42;;;;;;;7.45;2.13;;;;;;;24.19;52.36;96136.66;6277973;22;20066;-81
2023/09/18 08:01:10;;;;;;;6.78;2.28;;;;;;;24.19;51.99;96145.44;6278227;22;20457;-81
2023/09/18 08:03:38;;;;;;;3.38;1.48;;;;;;;24.19;51.76;96141.97;6278072;22;20024;-80
2023/09/18 08:06:07;;;;;;;5.15;1.63;;;;;;;24.19;51.78;96144.63;6277643;22;20054;-81
2023/09/18 08:08:36;;;;;;;7.70;1.70;;;;;;;24.19;52.11;96153.41;6277672;22;20019;-81
2023/09/18 08:11:09;;;;;;;3.33;1.27;;;;;;;24.20;51.41;96152.34;6277793;22;20024;-81
2023/09/18 08:13:37;;;;;;;9.02;2.05;;;;;;;24.23;51.69;96159.78;6277881;22;20358;-81
2023/09/18 08:16:07;;;;;;;10.48;1.65;;;;;;;24.25;51.24;96162.97;6277876;22;20023;-80
2023/09/18 08:18:35;;;;;;;7.40;1.58;;;;;;;24.27;51.08;96160.81;6277589;22;20023;-81
2023/09/18 08:21:04;;;;;;;9.35;1.45;;;;;;;24.32;51.08;96164.53;6277462;22;20070;-80
2023/09/18 08:23:33;;;;;;;4.10;1.60;;;;;;;24.34;50.77;96157.03;6276779;22;20023;-80
2023/09/18 08:26:01;;;;;;;4.22;0.95;;;;;;;24.35;50.75;96151.41;6277295;22;20059;-79
2023/09/18 08:28:29;;;;;;;4.15;1.38;;;;;;;24.40;50.89;96153.22;6277216;22;20016;-81
2023/09/18 08:30:58;;;;;;;5.93;1.48;;;;;;;24.41;50.78;96160.94;6277711;22;20098;-81
2023/09/18 08:33:26;;;;;;;8.50;1.83;;;;;;;24.45;50.55;96167.31;6278034;22;20031;-80
2023/09/18 08:35:54;;;;;;;6.05;1.20;;;;;;;24.53;50.45;96179.25;6277444;22;20457;-81
2023/09/18 08:38:21;;;;;;;3.30;1.40;;;;;;;24.62;49.76;96187.44;6277880;22;20020;-80
2023/09/18 08:40:50;;;;;;;8.38;1.40;;;;;;;24.65;49.85;96181.56;6277218;22;20057;-80
2023/09/18 08:43:21;;;;;;;6.80;1.40;;;;;;;24.73;49.67;96193.47;6276851;22;20457;-81
2023/09/18 08:45:53;;;;;;;8.23;1.50;;;;;;;24.84;49.32;96211.78;6285729;22;20016;-81
2023/09/18 08:48:22;;;;;;;6.68;1.05;;;;;;;24.95;48.79;96209.81;6290064;22;20023;-81
2023/09/18 08:50:52;;;;;;;7.25;1.35;;;;;;;25.03;48.74;96206.50;6287032;22;20024;-80
2023/09/18 08:53:20;;;;;;;3.35;0.88;;;;;;;25.06;48.13;96215.81;6278393;22;20016;-80
2023/09/18 08:55:47;;;;;;;13.25;1.42;;;;;;;25.08;48.35;96205.66;6277690;22;20054;-81
2023/09/18 08:58:19;;;;;;;4.90;0.98;;;;;;;25.16;48.27;96207.69;6277639;22;20050;-81
2023/09/18 09:00:47;;;;;;;4.63;1.05;;;;;;;25.27;48.10;96216.41;6277309;22;20020;-81
2023/09/18 09:03:15;;;;;;;7.25;1.17;;;;;;;25.49;47.70;96231.88;6277373;22;20016;-81
2023/09/18 09:05:43;;;;;;;6.15;1.25;;;;;;;25.73;47.00;96215.81;6276741;22;20488;-81
2023/09/18 09:08:10;;;;;;;2.55;0.80;;;;;;;25.86;46.78;96222.31;6277197;22;20042;-80
2023/09/18 09:10:38;;;;;;;8.23;1.52;;;;;;;25.76;46.58;96230.47;6277541;22;20023;-81
2023/09/18 09:13:06;;;;;;;1.88;1.10;;;;;;;25.67;47.01;96216.97;6277335;22;20485;-81
2023/09/18 09:15:45;;;;;;;5.68;1.10;;;;;;;25.64;47.05;96222.88;6278085;22;20023;-81
2023/09/18 09:18:14;;;;;;;7.45;1.35;;;;;;;25.67;47.38;96224.97;6277331;22;20023;-81
2023/09/18 09:20:54;;;;;;;4.70;1.25;;;;;;;25.74;47.22;96244.13;6277449;22;20024;-81
2023/09/18 09:23:21;;;;;;;5.57;1.20;;;;;;;26.04;47.04;96240.28;6277407;22;20024;-79
2023/09/18 09:25:49;;;;;;;3.47;1.00;;;;;;;26.36;46.53;96241.38;6277196;22;20050;-81
2023/09/18 09:28:17;;;;;;;3.15;1.10;;;;;;;26.51;45.70;96251.84;6277623;22;20024;-80
2023/09/18 09:30:46;;;;;;;3.47;0.90;;;;;;;26.49;45.65;96247.88;6277017;22;20023;-80
2023/09/18 09:33:13;;;;;;;3.28;0.80;;;;;;;26.23;46.41;96234.91;6277266;22;20055;-81
2023/09/18 09:35:41;;;;;;;6.43;1.10;;;;;;;25.93;46.75;96224.66;6278611;22;20019;-81
2023/09/18 09:38:12;;;;;;;4.05;1.10;;;;;;;25.69;47.77;96236.16;6277870;22;20055;-81
2023/09/18 09:40:41;;;;;;;3.63;1.00;;;;;;;25.51;48.06;96239.63;6277006;22;20023;-81
2023/09/18 09:43:13;;;;;;;6.03;1.00;;;;;;;25.36;48.23;96249.38;6276780;22;20046;-81
2023/09/18 09:45:42;;;;;;;6.70;1.08;;;;;;;25.18;48.68;96236.78;6277560;22;20353;-80
2023/09/18 09:48:11;;;;;;;3.80;0.77;;;;;;;25.00;48.72;96249.75;6276941;22;20046;-81
2023/09/18 09:50:46;;;;;;;3.60;0.90;;;;;;;24.87;49.09;96247.75;6277250;22;20452;-81
2023/09/18 09:53:15;;;;;;;3.78;1.13;;;;;;;24.79;49.01;96240.38;6276783;22;20027;-80
2023/09/18 09:55:42;;;;;;;4.72;1.00;;;;;;;24.68;48.71;96239.66;6276842;22;20019;-80
2023/09/18 09:58:13;;;;;;;4.53;0.65;;;;;;;24.61;48.59;96234.66;6276891;22;20093;-80
2023/09/18 10:00:47;;;;;;;3.60;0.55;;;;;;;24.54;49.09;96230.75;6276895;22;20460;-81
2023/09/18 10:03:18;;;;;;;3.95;0.77;;;;;;;24.48;49.24;96237.97;6276544;22;20073;-80
2023/09/18 10:05:48;;;;;;;3.13;0.65;;;;;;;24.44;49.20;96247.56;6276984;22;20026;-81
2023/09/18 10:08:22;;;;;;;1.85;0.60;;;;;;;24.39;49.20;96255.63;6277106;22;20020;-81
2023/09/18 10:10:52;;;;;;;1.27;0.55;;;;;;;24.38;49.14;96260.16;6276372;22;20050;-81
2023/09/18 10:13:24;;;;;;;3.47;0.82;;;;;;;24.38;49.23;96256.69;6276518;22;20099;-81
2023/09/18 10:15:53;;;;;;;3.65;0.85;;;;;;;24.37;49.03;96260.44;6276534;22;20020;-81
2023/09/18 10:18:29;;;;;;;2.95;0.82;;;;;;;24.30;49.53;96262.63;6276130;22;20077;-80
2023/09/18 10:21:15;;;;;;;6.28;0.82;;;;;;;24.19;50.46;96275.22;6277036;22;20449;-80
2023/09/18 10:23:54;;;;;;;4.05;0.57;;;;;;;24.09;50.64;96270.72;6275976;22;20024;-80
2023/09/18 10:26:29;;;;;;;3.78;0.73;;;;;;;23.99;50.54;96260.16;6277520;22;20019;-80
2023/09/18 10:28:59;;;;;;;4.85;0.65;;;;;;;23.87;51.29;96255.16;6277924;22;20023;-80
2023/09/18 10:31:28;;;;;;;6.47;0.80;;;;;;;23.76;51.75;96250.94;6280926;22;20028;-80
2023/09/18 10:33:59;;;;;;;3.05;0.82;;;;;;;23.66;52.81;96259.78;6278713;22;20077;-80
2023/09/18 10:36:28;;;;;;;2.53;0.85;;;;;;;23.62;52.42;96282.69;6281495;22;20050;-78
2023/09/18 10:39:04;;;;;;;5.00;0.98;;;;;;;23.56;53.07;96289.09;6278161;22;20026;-77
2023/09/18 10:41:34;;;;;;;6.57;0.85;;;;;;;23.45;53.81;96302.44;6277233;22;20024;-77
2023/09/18 10:44:13;;;;;;;2.60;0.60;;;;;;;23.39;54.53;96313.34;6285891;22;20011;-81
2023/09/18 10:46:49;;;;;;;1.55;0.40;;;;;;;23.35;54.73;96315.78;6299376;22;20016;-82
2023/09/18 10:49:31;;;;;;;6.45;0.75;;;;;;;23.34;54.93;96313.38;6294208;22;20045;-78
2023/09/18 10:52:05;;;;;;;3.85;0.80;;;;;;;23.29;55.15;96310.75;6306144;22;20035;-78
2023/09/18 10:55:03;;;;;;;1.92;0.50;;;;;;;23.21;55.49;96317.41;6305591;22;20063;-79
2023/09/18 10:58:41;;;;;;;1.35;0.55;;;;;;;23.08;55.42;96317.97;6306545;22;19999;-82
2023/09/18 11:01:53;;;;;;;2.67;0.35;;;;;;;22.97;55.65;96325.91;6272875;22;20016;-79
2023/09/18 11:07:09;;;;;;;1.02;0.35;;;;;;;22.81;55.07;96327.00;6294900;22;20027;-81
2023/09/18 11:09:53;;;;;;;1.52;0.50;;;;;;;22.76;55.57;96335.78;6306763;22;20035;-79
2023/09/18 11:18:11;;;;;;;0.80;0.40;;;;;;;22.71;55.94;96362.34;6290147;22;20000;-81
2023/09/18 11:21:33;;;;;;;0.57;0.40;;;;;;;22.68;55.76;96364.75;6306866;22;20014;-80
2023/09/18 11:27:04;;;;;;;0.63;0.30;;;;;;;22.53;56.34;96333.63;6291515;22;20007;-79
2023/09/18 11:29:43;;;;;;;0.47;0.47;;;;;;;22.46;57.58;96336.53;6305746;22;20062;-78
2023/09/18 11:32:39;;;;;;;1.13;0.40;;;;;;;22.43;57.18;96353.00;6279780;22;20078;-78
2023/09/18 11:35:18;;;;;;;2.65;0.52;;;;;;;22.37;57.93;96357.53;6305524;22;20019;-79
2023/09/18 11:38:17;;;;;;;1.25;0.45;;;;;;;22.29;58.43;96354.59;6305372;22;20016;-79
2023/09/18 11:43:45;;;;;;;4.00;1.00;;;;;;;21.97;59.01;96344.88;6305254;22;20024;-79
2023/09/18 11:46:39;;;;;;;5.18;1.13;;;;;;;21.80;60.51;96326.53;6303685;22;20027;-79
2023/09/18 11:52:37;;;;;;;1.52;0.60;;;;;;;21.61;61.83;96310.25;6272319;22;20056;-79
2023/09/18 11:55:21;;;;;;;1.63;0.60;;;;;;;21.58;61.56;96310.75;6274763;22;20016;-78
2023/09/18 11:58:13;;;;;;;2.13;0.30;;;;;;;21.46;62.08;96313.63;6274737;22;20023;-78
2023/09/18 12:00:54;;;;;;;3.35;0.80;;;;;;;21.32;62.35;96310.63;6274877;22;20023;-79
2023/09/18 12:03:47;;;;;;;2.70;0.60;;;;;;;21.23;63.21;96320.13;6274263;23;20024;-78
2023/09/18 12:06:33;;;;;;;2.43;0.50;;;;;;;21.20;62.75;96310.00;6269415;22;20020;-79
2023/09/18 12:09:16;;;;;;;1.02;0.40;;;;;;;21.23;63.14;96325.41;6273842;23;20233;-78
2023/09/18 12:12:09;;;;;;;0.95;0.50;;;;;;;21.29;62.74;96329.69;6273316;22;20000;-79
2023/09/18 12:14:44;;;;;;;1.75;0.80;;;;;;;21.29;63.13;96324.38;6254069;22;20024;-79
2023/09/18 12:17:16;;;;;;;0.80;0.65;;;;;;;21.24;62.81;96313.75;6246528;22;20032;-78
2023/09/18 12:19:51;;;;;;;;;;;;;;;21.22;62.95;96317.72;6247261;23;20020;-78
2023/09/18 12:22:24;;;;;;;3.25;0.55;;;;;;;21.13;63.37;96310.22;6247712;23;19968;-77
2023/09/18 12:24:52;;;;;;;1.65;0.45;;;;;;;21.03;63.38;96309.34;6246255;23;20047;-77
2023/09/18 12:27:20;;;;;;;2.35;0.77;;;;;;;20.95;63.83;96311.44;6248738;22;20047;-80
2023/09/18 12:29:49;;;;;;;1.50;0.80;;;;;;;20.93;64.36;96326.81;6254079;22;20024;-78
2023/09/18 12:32:16;;;;;;;3.88;0.70;;;;;;;20.88;64.57;96325.97;6272306;23;20024;-78
2023/09/18 12:34:44;;;;;;;1.95;0.50;;;;;;;20.86;64.04;96312.97;6271714;22;20014;-77
2023/09/18 12:37:13;;;;;;;3.10;0.80;;;;;;;20.83;64.52;96316.13;6260144;22;20024;-80
2023/09/18 12:39:41;;;;;;;3.42;0.82;;;;;;;20.79;64.86;96309.72;6257230;23;20054;-80
2023/09/18 12:42:09;;;;;;;3.03;0.60;;;;;;;20.77;65.12;96309.16;6252140;22;20047;-80
2023/09/18 12:44:37;;;;;;;2.00;0.47;;;;;;;20.75;66.00;96288.25;6250836;22;20024;-79
2023/09/18 12:47:06;;;;;;;1.90;0.43;;;;;;;20.71;65.93;96296.97;6247168;22;20067;-79
2023/09/18 12:49:34;;;;;;;1.65;0.40;;;;;;;20.67;66.47;96290.56;6247398;22;20031;-82
2023/09/18 12:52:06;;;;;;;1.67;0.63;;;;;;;20.60;66.35;96296.06;6246516;22;20024;-82
2023/09/18 12:54:41;;;;;;;3.35;0.93;;;;;;;20.57;67.20;96285.97;6247263;23;20024;-82
2023/09/18 12:57:10;;;;;;;4.30;0.88;;;;;;;20.54;67.53;96299.69;6245951;22;20024;-81
2023/09/18 12:59:38;;;;;;;2.70;0.80;;;;;;;20.51;67.41;96303.66;6246097;22;20024;-82
2023/09/18 13:02:08;;;;;;;3.25;0.80;;;;;;;20.49;67.97;96297.81;6246689;22;20090;-81
2023/09/18 13:04:38;;;;;;;1.55;0.70;;;;;;;20.47;68.26;96307.06;6250984;23;20024;-83
2023/09/18 13:07:11;;;;;;;2.13;0.70;;;;;;;20.45;68.29;96312.59;6254676;22;20040;-82
2023/09/18 13:09:39;;;;;;;3.60;0.80;;;;;;;20.44;68.07;96292.44;6253104;23;20016;-82
2023/09/18 13:12:08;;;;;;;3.05;1.10;;;;;;;20.40;67.67;96286.09;6251890;23;20016;-82
2023/09/18 13:14:59;;;;;;;3.30;0.70;;;;;;;20.40;68.36;96269.38;6258235;23;20450;-82
2023/09/18 13:17:28;;;;;;;3.42;1.23;;;;;;;20.39;68.29;96279.16;6256791;22;20579;-82
2023/09/18 13:19:56;;;;;;;3.25;1.10;;;;;;;20.44;67.71;96291.66;6253081;22;20491;-82
2023/09/18 13:22:25;;;;;;;2.33;0.75;;;;;;;20.49;67.67;96300.47;6257986;22;20020;-83
2023/09/18 13:24:57;;;;;;;1.92;0.95;;;;;;;20.56;67.98;96282.50;6258724;23;20046;-82
2023/09/18 13:27:25;;;;;;;3.08;1.10;;;;;;;20.66;67.18;96283.66;6260882;22;20024;-83